createdAt,value
2022-10-03T00:00:13.675Z,9.10
2022-10-03T00:03:19.721Z,9.90
2022-10-03T00:05:56.805Z,9.03
2022-10-03T00:08:35.388Z,9.40
2022-10-03T00:11:08.788Z,10.07
2022-10-03T00:13:42.381Z,9.97
2022-10-03T00:16:15.826Z,9.70
2022-10-03T00:18:55.418Z,9.57
2022-10-03T00:21:31.803Z,9.47
2022-10-03T00:24:06.281Z,10.00
2022-10-03T00:26:40.229Z,10.10
2022-10-03T00:29:22.785Z,10.03
2022-10-03T00:31:57.943Z,10.17
2022-10-03T00:34:33.505Z,10.57
2022-10-03T00:37:11.843Z,10.13
2022-10-03T00:39:48.685Z,10.37
2022-10-03T00:42:45.497Z,9.83
2022-10-03T00:45:31.175Z,9.80
2022-10-03T00:48:11.872Z,9.93
2022-10-03T00:50:50.478Z,10.10
2022-10-03T00:53:25.897Z,11.13
2022-10-03T00:56:07.886Z,10.50
2022-10-03T00:58:51.270Z,10.33
2022-10-03T01:01:31.929Z,9.40
2022-10-03T01:04:10.817Z,10.17
2022-10-03T01:06:43.189Z,9.87
2022-10-03T01:09:21.865Z,10.47
2022-10-03T01:12:01.642Z,10.23
2022-10-03T01:14:51.269Z,9.80
2022-10-03T01:17:26.381Z,10.30
2022-10-03T01:20:09.732Z,11.37
2022-10-03T01:22:53.481Z,11.70
2022-10-03T01:25:34.782Z,12.00
2022-10-03T01:28:45.422Z,11.80
2022-10-03T01:31:18.150Z,13.30
2022-10-03T01:33:54.005Z,12.40
2022-10-03T01:36:26.429Z,12.20
2022-10-03T01:38:57.340Z,12.27
2022-10-03T01:41:29.509Z,12.70
2022-10-03T01:44:00.601Z,11.90
2022-10-03T01:46:37.511Z,12.57
2022-10-03T01:49:10.084Z,12.50
2022-10-03T01:51:46.252Z,12.70
2022-10-03T01:54:18.630Z,12.97
2022-10-03T01:56:54.241Z,12.97
2022-10-03T01:59:26.377Z,12.20
2022-10-03T02:02:00.808Z,11.97
2022-10-03T02:04:39.016Z,12.20
2022-10-03T02:07:16.593Z,12.67
2022-10-03T02:09:51.835Z,12.40
2022-10-03T02:12:28.087Z,11.67
2022-10-03T02:15:00.792Z,12.00
2022-10-03T02:17:45.262Z,12.10
2022-10-03T02:20:23.678Z,12.10
2022-10-03T02:22:53.799Z,12.90
2022-10-03T02:25:40.463Z,12.27
2022-10-03T02:28:31.016Z,11.97
2022-10-03T02:31:45.902Z,11.67
2022-10-03T02:34:46.854Z,11.90
2022-10-03T02:37:28.855Z,11.77
2022-10-03T02:40:17.542Z,11.80
2022-10-03T02:43:01.841Z,12.00
2022-10-03T02:45:59.573Z,12.20
2022-10-03T02:48:43.785Z,12.17
2022-10-03T02:51:42.749Z,11.43
2022-10-03T02:54:42.945Z,12.00
2022-10-03T02:57:26.296Z,12.40
2022-10-03T03:00:06.768Z,11.30
2022-10-03T03:03:02.946Z,11.07
2022-10-03T03:05:46.272Z,11.83
2022-10-03T03:08:25.355Z,11.77
2022-10-03T03:11:33.276Z,11.17
2022-10-03T03:14:32.300Z,11.00
2022-10-03T03:17:08.969Z,11.30
2022-10-03T03:19:42.957Z,11.03
2022-10-03T03:22:21.459Z,10.60
2022-10-03T03:25:02.001Z,10.53
2022-10-03T03:27:47.029Z,11.27
2022-10-03T03:30:17.121Z,11.23
2022-10-03T03:32:54.261Z,11.07
2022-10-03T03:35:31.261Z,11.07
2022-10-03T03:38:07.953Z,11.47
2022-10-03T03:40:46.714Z,11.50
2022-10-03T03:43:38.202Z,11.47
2022-10-03T03:46:20.114Z,11.90
2022-10-03T03:49:06.497Z,11.43
2022-10-03T03:51:42.366Z,12.13
2022-10-03T03:54:35.934Z,12.13
2022-10-03T03:57:25.693Z,12.13
2022-10-03T04:00:05.029Z,11.87
2022-10-03T04:02:46.841Z,11.20
2022-10-03T04:05:26.065Z,11.70
2022-10-03T04:08:11.975Z,11.90
2022-10-03T04:10:51.294Z,11.23
2022-10-03T04:13:34.345Z,11.73
2022-10-03T04:16:15.165Z,11.67
2022-10-03T04:19:00.701Z,12.30
2022-10-03T04:21:42.070Z,12.80
2022-10-03T04:24:24.058Z,12.43
2022-10-03T04:27:08.874Z,11.80
2022-10-03T04:29:45.509Z,12.53
2022-10-03T04:32:24.369Z,12.43
2022-10-03T04:35:05.657Z,12.83
2022-10-03T04:37:35.445Z,12.20
2022-10-03T04:40:22.488Z,12.40
2022-10-03T04:42:58.387Z,12.63
2022-10-03T04:45:40.009Z,13.00
2022-10-03T04:48:16.453Z,12.97
2022-10-03T04:50:46.049Z,12.63
2022-10-03T04:53:24.870Z,13.47
2022-10-03T04:55:55.541Z,13.43
2022-10-03T04:58:29.490Z,13.57
2022-10-03T05:01:06.437Z,13.77
2022-10-03T05:03:43.930Z,13.30
2022-10-03T05:06:27.255Z,13.77
2022-10-03T05:09:00.272Z,12.90
2022-10-03T05:11:39.519Z,13.67
2022-10-03T05:14:11.771Z,13.23
2022-10-03T05:16:43.873Z,13.60
2022-10-03T05:19:37.059Z,13.43
2022-10-03T05:22:11.965Z,12.87
2022-10-03T05:24:51.324Z,13.33
2022-10-03T05:27:25.772Z,13.37
2022-10-03T05:30:00.642Z,11.93
2022-10-03T05:32:34.780Z,12.00
2022-10-03T05:35:16.341Z,11.93
2022-10-03T05:38:12.010Z,12.20
2022-10-03T05:40:41.323Z,12.37
2022-10-03T05:43:20.411Z,11.57
2022-10-03T05:45:50.512Z,11.40
2022-10-03T05:48:32.895Z,11.90
2022-10-03T05:51:13.104Z,12.23
2022-10-03T05:54:28.093Z,12.10
2022-10-03T05:57:42.722Z,11.70
2022-10-03T06:00:26.110Z,12.17
2022-10-03T06:03:46.265Z,12.00
2022-10-03T06:06:20.824Z,12.83
2022-10-03T06:08:55.798Z,12.17
2022-10-03T06:11:47.810Z,11.80
2022-10-03T06:14:29.908Z,12.10
2022-10-03T06:17:10.084Z,11.87
2022-10-03T06:19:49.604Z,12.37
2022-10-03T06:22:44.192Z,12.83
2022-10-03T06:25:40.398Z,12.47
2022-10-03T06:28:54.826Z,12.33
2022-10-03T06:31:44.038Z,12.20
2022-10-03T06:34:31.291Z,12.47
2022-10-03T06:37:25.052Z,12.97
2022-10-03T06:40:37.106Z,12.20
2022-10-03T06:43:38.145Z,12.13
2022-10-03T06:46:23.686Z,12.70
2022-10-03T06:49:06.586Z,12.67
2022-10-03T06:51:48.806Z,12.30
2022-10-03T06:54:51.061Z,12.17
2022-10-03T06:57:31.839Z,12.40
2022-10-03T07:00:06.625Z,11.90
2022-10-03T07:03:05.664Z,11.20
2022-10-03T07:06:09.364Z,11.20
2022-10-03T07:09:08.770Z,11.53
2022-10-03T07:12:16.739Z,11.60
2022-10-03T07:14:59.680Z,12.87
2022-10-03T07:17:35.011Z,12.63
2022-10-03T07:20:31.338Z,13.00
2022-10-03T07:23:20.901Z,12.87
2022-10-03T07:26:14.909Z,12.60
2022-10-03T07:29:08.007Z,12.97
2022-10-03T07:31:45.414Z,12.73
2022-10-03T07:34:47.877Z,12.07
2022-10-03T07:37:46.482Z,12.43
2022-10-03T07:40:23.221Z,12.03
2022-10-03T07:43:18.216Z,12.33
2022-10-03T07:45:47.554Z,12.60
2022-10-03T07:48:58.418Z,12.07
2022-10-03T07:51:35.394Z,12.60
2022-10-03T07:54:31.730Z,12.30
2022-10-03T07:57:06.766Z,11.40
2022-10-03T08:00:09.101Z,11.90
2022-10-03T08:03:07.912Z,10.80
2022-10-03T08:05:46.142Z,10.57
2022-10-03T08:08:33.759Z,10.43
2022-10-03T08:11:27.672Z,10.17
2022-10-03T08:14:01.887Z,10.63
2022-10-03T08:16:52.729Z,10.20
2022-10-03T08:19:31.704Z,11.63
2022-10-03T08:22:06.810Z,10.80
2022-10-03T08:24:51.337Z,11.07
2022-10-03T08:27:32.430Z,11.30
2022-10-03T08:30:23.946Z,10.83
2022-10-03T08:33:04.363Z,11.57
2022-10-03T08:35:38.657Z,12.00
2022-10-03T08:38:23.891Z,11.90
2022-10-03T08:41:08.603Z,12.37
2022-10-03T08:44:12.109Z,13.03
2022-10-03T08:47:04.043Z,12.83
2022-10-03T08:50:10.508Z,13.10
2022-10-03T08:52:51.538Z,13.27
2022-10-03T08:55:42.799Z,13.17
2022-10-03T08:58:26.398Z,13.93
2022-10-03T09:01:13.184Z,12.93
2022-10-03T09:04:10.346Z,13.00
2022-10-03T09:07:17.992Z,13.63
2022-10-03T09:10:35.110Z,13.87
2022-10-03T09:13:13.861Z,14.40
2022-10-03T09:16:01.182Z,14.20
2022-10-03T09:18:41.470Z,15.00
2022-10-03T09:21:39.570Z,15.47
2022-10-03T09:24:37.488Z,15.20
2022-10-03T09:27:28.790Z,15.67
2022-10-03T09:30:13.104Z,15.70
2022-10-03T09:33:17.845Z,16.10
2022-10-03T09:36:00.129Z,16.30
2022-10-03T09:38:53.229Z,15.37
2022-10-03T09:41:30.615Z,16.07
2022-10-03T09:44:17.529Z,16.60
2022-10-03T09:47:18.017Z,15.37
2022-10-03T09:50:21.001Z,16.63
2022-10-03T09:53:05.656Z,15.33
2022-10-03T09:55:41.858Z,16.17
2022-10-03T09:58:30.850Z,15.80
2022-10-03T10:01:12.309Z,15.83
2022-10-03T10:04:37.505Z,16.03
2022-10-03T10:07:26.900Z,15.50
2022-10-03T10:10:12.828Z,15.83
2022-10-03T10:12:52.600Z,15.83
2022-10-03T10:15:33.650Z,16.13
2022-10-03T10:18:23.353Z,16.13
2022-10-03T10:21:32.313Z,16.33
2022-10-03T10:24:12.255Z,16.43
2022-10-03T10:27:15.900Z,16.43
2022-10-03T10:30:15.093Z,16.60
2022-10-03T10:33:24.127Z,17.10
2022-10-03T10:36:11.380Z,17.00
2022-10-03T10:39:24.327Z,18.20
2022-10-03T10:42:08.901Z,17.30
2022-10-03T10:45:06.190Z,19.00
2022-10-03T10:48:21.205Z,18.27
2022-10-03T10:51:10.036Z,17.03
2022-10-03T10:54:08.750Z,17.47
2022-10-03T10:57:18.009Z,17.77
2022-10-03T11:00:09.022Z,17.90
2022-10-03T11:03:19.025Z,18.17
2022-10-03T11:06:17.106Z,17.80
2022-10-03T11:09:32.957Z,17.87
2022-10-03T11:12:32.753Z,17.90
2022-10-03T11:15:36.683Z,17.97
2022-10-03T11:18:31.422Z,18.13
2022-10-03T11:21:35.597Z,18.03
2022-10-03T11:24:20.272Z,18.50
2022-10-03T11:27:18.558Z,17.87
2022-10-03T11:30:19.604Z,17.23
2022-10-03T11:33:24.233Z,17.43
2022-10-03T11:36:19.970Z,17.70
2022-10-03T11:38:55.550Z,18.20
2022-10-03T11:41:30.265Z,17.70
2022-10-03T11:44:09.364Z,17.90
2022-10-03T11:46:51.214Z,17.53
2022-10-03T11:49:43.892Z,18.20
2022-10-03T11:52:22.206Z,22.00
2022-10-03T11:54:50.961Z,18.10
2022-10-03T11:57:26.601Z,17.90
2022-10-03T12:00:06.307Z,17.93
2022-10-03T12:02:55.948Z,17.83
2022-10-03T12:05:29.014Z,17.83
2022-10-03T12:08:29.504Z,17.90
2022-10-03T12:11:06.941Z,17.77
2022-10-03T12:13:39.462Z,18.30
2022-10-03T12:16:10.431Z,19.13
2022-10-03T12:18:52.405Z,18.13
2022-10-03T12:21:23.731Z,18.30
2022-10-03T12:23:59.482Z,17.90
2022-10-03T12:26:34.721Z,17.80
2022-10-03T12:29:04.715Z,17.87
2022-10-03T12:31:36.151Z,17.23
2022-10-03T12:34:14.295Z,17.60
2022-10-03T12:36:49.254Z,18.10
2022-10-03T12:39:26.859Z,17.53
2022-10-03T12:42:10.730Z,17.43
2022-10-03T12:44:47.577Z,17.60
2022-10-03T12:47:44.085Z,18.00
2022-10-03T12:50:24.434Z,17.73
2022-10-03T12:53:00.651Z,17.40
2022-10-03T12:55:32.290Z,17.60
2022-10-03T12:58:04.282Z,17.93
2022-10-03T13:00:35.372Z,18.97
2022-10-03T13:03:18.995Z,18.47
2022-10-03T13:06:10.474Z,18.40
2022-10-03T13:08:53.581Z,18.60
2022-10-03T13:11:32.526Z,18.27
2022-10-03T13:14:29.308Z,18.40
2022-10-03T13:17:04.382Z,18.07
2022-10-03T13:19:40.049Z,17.77
2022-10-03T13:22:21.783Z,17.83
2022-10-03T13:24:53.430Z,18.13
2022-10-03T13:27:40.409Z,17.70
2022-10-03T13:30:17.209Z,18.37
2022-10-03T13:32:46.820Z,18.77
2022-10-03T13:35:45.527Z,18.47
2022-10-03T13:38:18.474Z,18.70
2022-10-03T13:40:51.943Z,18.40
2022-10-03T13:43:25.231Z,18.67
2022-10-03T13:45:56.858Z,19.00
2022-10-03T13:48:27.402Z,18.57
2022-10-03T13:51:01.718Z,18.63
2022-10-03T13:53:45.523Z,18.10
2022-10-03T13:56:16.712Z,18.27
2022-10-03T13:58:50.388Z,18.13
2022-10-03T14:01:35.021Z,19.03
2022-10-03T14:04:27.124Z,19.10
2022-10-03T14:06:58.472Z,18.20
2022-10-03T14:09:47.650Z,18.53
2022-10-03T14:12:38.254Z,18.93
2022-10-03T14:15:24.506Z,18.03
2022-10-03T14:17:57.644Z,18.30
2022-10-03T14:20:29.006Z,18.63
2022-10-03T14:23:08.162Z,18.30
2022-10-03T14:25:38.510Z,18.27
2022-10-03T14:28:13.389Z,18.40
2022-10-03T14:31:05.637Z,17.80
2022-10-03T14:33:39.810Z,18.00
2022-10-03T14:36:21.057Z,18.43
2022-10-03T14:39:01.787Z,17.77
2022-10-03T14:41:40.146Z,17.77
2022-10-03T14:44:13.195Z,17.43
2022-10-03T14:46:48.212Z,16.90
2022-10-03T14:49:50.952Z,17.80
2022-10-03T14:52:13.774Z,17.37
2022-10-03T14:54:42.857Z,17.10
2022-10-03T14:57:26.329Z,17.80
2022-10-03T14:59:57.804Z,17.90
2022-10-03T15:02:31.207Z,17.90
2022-10-03T15:05:04.637Z,17.33
2022-10-03T15:07:37.345Z,16.90
2022-10-03T15:10:08.245Z,17.10
2022-10-03T15:12:38.021Z,17.10
2022-10-03T15:15:08.461Z,16.90
2022-10-03T15:17:48.474Z,16.77
2022-10-03T15:20:19.098Z,16.23
2022-10-03T15:22:50.749Z,16.63
2022-10-03T15:25:19.850Z,16.80
2022-10-03T15:27:51.876Z,16.37
2022-10-03T15:30:30.687Z,16.57
2022-10-03T15:33:07.148Z,16.53
2022-10-03T15:35:39.041Z,16.20
2022-10-03T15:38:11.818Z,16.67
2022-10-03T15:40:41.281Z,16.47
2022-10-03T15:43:24.489Z,16.47
2022-10-03T15:45:52.875Z,16.50
2022-10-03T15:48:22.737Z,16.10
2022-10-03T15:50:52.770Z,15.60
2022-10-03T15:53:36.191Z,17.20
2022-10-03T15:56:11.136Z,16.70
2022-10-03T15:58:40.334Z,16.43
2022-10-03T16:01:11.170Z,16.97
2022-10-03T16:03:44.238Z,16.60
2022-10-03T16:06:14.589Z,16.70
2022-10-03T16:08:52.499Z,15.93
2022-10-03T16:11:22.373Z,16.30
2022-10-03T16:13:59.084Z,15.90
2022-10-03T16:16:34.162Z,16.03
2022-10-03T16:19:25.918Z,15.73
2022-10-03T16:21:57.300Z,15.10
2022-10-03T16:24:35.050Z,15.17
2022-10-03T16:27:08.974Z,14.73
2022-10-03T16:29:38.191Z,15.60
2022-10-03T16:32:09.936Z,15.27
2022-10-03T16:34:43.273Z,14.77
2022-10-03T16:37:17.973Z,15.00
2022-10-03T16:39:55.678Z,14.93
2022-10-03T16:42:26.538Z,14.37
2022-10-03T16:44:55.970Z,14.30
2022-10-03T16:47:32.717Z,14.30
2022-10-03T16:50:25.433Z,15.00
2022-10-03T16:52:55.354Z,14.30
2022-10-03T16:55:31.050Z,14.40
2022-10-03T16:58:01.389Z,14.57
2022-10-03T17:00:34.246Z,13.83
2022-10-03T17:03:03.896Z,14.00
2022-10-03T17:05:37.008Z,13.40
2022-10-03T17:08:29.658Z,13.63
2022-10-03T17:10:54.482Z,12.90
2022-10-03T17:13:23.545Z,13.23
2022-10-03T17:15:52.857Z,13.17
2022-10-03T17:18:25.740Z,13.23
2022-10-03T17:20:56.845Z,14.40
2022-10-03T17:23:29.653Z,13.50
2022-10-03T17:26:02.028Z,13.47
2022-10-03T17:28:37.013Z,14.00
2022-10-03T17:31:06.545Z,13.37
2022-10-03T17:33:39.832Z,13.60
2022-10-03T17:36:28.128Z,15.00
2022-10-03T17:38:59.918Z,14.10
2022-10-03T17:41:33.942Z,13.70
2022-10-03T17:44:18.123Z,13.10
2022-10-03T17:46:53.265Z,12.70
2022-10-03T17:49:24.725Z,12.53
2022-10-03T17:51:54.258Z,12.47
2022-10-03T17:54:25.400Z,11.90
2022-10-03T17:56:54.661Z,12.17
2022-10-03T17:59:25.329Z,12.47
2022-10-03T18:01:55.062Z,12.53
2022-10-03T18:04:30.872Z,12.50
2022-10-03T18:07:03.090Z,11.80
2022-10-03T18:09:32.535Z,12.30
2022-10-03T18:12:12.006Z,11.70
2022-10-03T18:14:48.032Z,12.30
2022-10-03T18:17:18.023Z,12.10
2022-10-03T18:19:51.634Z,12.27
2022-10-03T18:22:22.482Z,12.47
2022-10-03T18:24:59.498Z,11.57
2022-10-03T18:27:42.350Z,12.07
2022-10-03T18:30:16.417Z,12.73
2022-10-03T18:32:45.457Z,13.43
2022-10-03T18:35:17.363Z,12.63
2022-10-03T18:37:56.812Z,12.27
2022-10-03T18:40:30.301Z,13.70
2022-10-03T18:43:08.246Z,13.10
2022-10-03T18:45:44.601Z,14.17
2022-10-03T18:48:14.578Z,15.80
2022-10-03T18:50:52.898Z,20.30
2022-10-03T18:53:27.933Z,23.17
2022-10-03T18:55:59.498Z,19.80
2022-10-03T18:58:29.470Z,16.67
2022-10-03T19:01:03.590Z,16.37
2022-10-03T19:03:39.029Z,16.27
2022-10-03T19:06:09.192Z,13.87
2022-10-03T19:08:41.129Z,15.47
2022-10-03T19:11:18.511Z,14.70
2022-10-03T19:13:53.794Z,14.17
2022-10-03T19:16:33.933Z,14.17
2022-10-03T19:19:06.894Z,13.50
2022-10-03T19:21:38.299Z,17.40
2022-10-03T19:24:12.317Z,21.93
2022-10-03T19:26:40.938Z,28.60
2022-10-03T19:29:11.696Z,24.83
2022-10-03T19:31:41.312Z,15.47
2022-10-03T19:34:15.859Z,22.13
2022-10-03T19:36:43.541Z,17.80
2022-10-03T19:39:15.606Z,13.90
2022-10-03T19:41:49.943Z,18.63
2022-10-03T19:44:18.935Z,15.67
2022-10-03T19:47:01.756Z,20.27
2022-10-03T19:49:40.138Z,19.20
2022-10-03T19:52:25.269Z,21.10
2022-10-03T19:54:59.413Z,20.70
2022-10-03T19:57:29.345Z,20.37
2022-10-03T19:59:59.474Z,18.47
2022-10-03T20:02:28.386Z,16.27
2022-10-03T20:04:58.224Z,15.20
2022-10-03T20:07:37.500Z,15.30
2022-10-03T20:10:15.775Z,13.13
2022-10-03T20:12:46.081Z,13.37
2022-10-03T20:15:19.666Z,12.70
2022-10-03T20:17:47.397Z,12.97
2022-10-03T20:20:18.943Z,12.63
2022-10-03T20:22:46.959Z,12.97
2022-10-03T20:25:26.448Z,13.20
2022-10-03T20:27:58.444Z,12.07
2022-10-03T20:30:30.302Z,13.00
2022-10-03T20:32:59.109Z,12.67
2022-10-03T20:35:28.425Z,13.80
2022-10-03T20:37:57.802Z,14.30
2022-10-03T20:40:35.164Z,14.07
2022-10-03T20:43:19.585Z,14.53
2022-10-03T20:45:51.673Z,15.57
2022-10-03T20:48:25.016Z,14.03
2022-10-03T20:50:52.721Z,11.73
2022-10-03T20:53:22.277Z,12.27
2022-10-03T20:55:53.497Z,11.77
2022-10-03T20:58:27.966Z,11.73
2022-10-03T21:01:00.844Z,11.87
2022-10-03T21:03:32.369Z,11.80
2022-10-03T21:06:00.820Z,11.80
2022-10-03T21:08:31.020Z,12.40
2022-10-03T21:11:01.217Z,12.03
2022-10-03T21:13:32.513Z,12.17
2022-10-03T21:16:01.669Z,12.20
2022-10-03T21:18:32.100Z,12.33
2022-10-03T21:21:04.674Z,12.33
2022-10-03T21:23:34.065Z,12.50
2022-10-03T21:26:03.353Z,12.60
2022-10-03T21:28:32.302Z,12.70
2022-10-03T21:31:28.809Z,12.43
2022-10-03T21:34:00.924Z,12.03
2022-10-03T21:36:35.537Z,12.13
2022-10-03T21:39:13.250Z,12.70
2022-10-03T21:41:50.417Z,12.60
2022-10-03T21:44:30.087Z,12.10
2022-10-03T21:47:03.809Z,12.97
2022-10-03T21:49:45.647Z,12.20
2022-10-03T21:52:25.359Z,12.50
2022-10-03T21:55:04.183Z,13.17
2022-10-03T21:57:40.741Z,13.23
2022-10-03T22:00:14.303Z,13.20
2022-10-03T22:02:51.828Z,13.40
2022-10-03T22:05:26.901Z,13.10
2022-10-03T22:07:54.318Z,14.10
2022-10-03T22:10:23.999Z,13.70
2022-10-03T22:12:54.506Z,13.77
2022-10-03T22:15:28.197Z,13.27
2022-10-03T22:17:59.444Z,15.07
2022-10-03T22:20:27.837Z,15.17
2022-10-03T22:23:09.414Z,16.07
2022-10-03T22:25:52.637Z,15.57
2022-10-03T22:28:29.622Z,16.23
2022-10-03T22:31:04.373Z,16.53
2022-10-03T22:33:40.161Z,17.67
2022-10-03T22:36:10.377Z,16.70
2022-10-03T22:38:37.924Z,19.00
2022-10-03T22:41:07.616Z,19.50
2022-10-03T22:43:38.215Z,18.90
2022-10-03T22:46:06.548Z,19.43
2022-10-03T22:48:35.800Z,19.10
2022-10-03T22:51:05.233Z,18.97
2022-10-03T22:53:33.861Z,18.97
2022-10-03T22:56:32.456Z,19.30
2022-10-03T22:59:01.837Z,17.87
2022-10-03T23:01:29.617Z,18.90
2022-10-03T23:03:57.409Z,18.83
2022-10-03T23:06:40.340Z,19.60
2022-10-03T23:09:13.338Z,19.33
2022-10-03T23:11:42.100Z,15.97
2022-10-03T23:14:16.226Z,15.97
2022-10-03T23:16:52.502Z,16.57
2022-10-03T23:19:27.934Z,16.77
2022-10-03T23:21:57.725Z,16.10
2022-10-03T23:24:27.921Z,16.10
2022-10-03T23:27:11.905Z,16.93
2022-10-03T23:29:40.713Z,16.97
2022-10-03T23:32:09.109Z,17.33
2022-10-03T23:34:48.156Z,18.70
2022-10-03T23:37:24.580Z,19.33
2022-10-03T23:40:21.299Z,18.23
2022-10-03T23:42:59.577Z,16.10
2022-10-03T23:45:29.716Z,18.07
2022-10-03T23:48:01.087Z,16.70
2022-10-03T23:50:38.821Z,18.10
2022-10-03T23:53:07.586Z,18.30
2022-10-03T23:55:39.849Z,19.13
2022-10-03T23:58:18.822Z,18.17
